createdAt,value
2023-01-11T00:01:06.333Z,67.50
2023-01-11T00:04:10.879Z,67.40
2023-01-11T00:07:14.050Z,67.90
2023-01-11T00:10:17.905Z,68.10
2023-01-11T00:13:21.289Z,68.60
2023-01-11T00:16:24.459Z,69.30
2023-01-11T00:19:29.104Z,69.80
2023-01-11T00:22:32.259Z,69.20
2023-01-11T00:25:35.625Z,71.70
2023-01-11T00:28:38.814Z,73.50
2023-01-11T00:31:41.973Z,71.80
2023-01-11T00:34:46.525Z,71.50
2023-01-11T00:37:49.644Z,71.30
2023-01-11T00:40:52.815Z,71.10
2023-01-11T00:44:13.334Z,71.60
2023-01-11T00:47:35.223Z,72.20
2023-01-11T00:50:41.813Z,72.50
2023-01-11T00:53:48.346Z,73.10
2023-01-11T00:56:51.481Z,72.90
2023-01-11T00:59:54.630Z,73.10
2023-01-11T01:02:57.998Z,73.10
2023-01-11T01:06:02.537Z,73.40
2023-01-11T01:09:05.701Z,73.80
2023-01-11T01:12:09.505Z,74.00
2023-01-11T01:15:12.108Z,74.10
2023-01-11T01:18:15.263Z,74.00
2023-01-11T01:21:19.800Z,74.10
2023-01-11T01:24:23.185Z,74.10
2023-01-11T01:27:26.374Z,74.80
2023-01-11T01:30:29.484Z,75.20
2023-01-11T01:33:32.777Z,76.10
2023-01-11T01:36:37.544Z,76.40
2023-01-11T01:39:40.700Z,76.40
2023-01-11T01:42:43.835Z,77.00
2023-01-11T01:45:50.028Z,77.40
2023-01-11T01:48:57.967Z,77.90
2023-01-11T01:52:03.578Z,78.00
2023-01-11T01:55:10.970Z,78.20
2023-01-11T01:58:16.920Z,78.60
2023-01-11T02:01:37.633Z,78.80
2023-01-11T02:04:43.837Z,79.50
2023-01-11T02:07:48.962Z,80.40
2023-01-11T02:10:54.285Z,80.90
2023-01-11T02:13:58.204Z,81.70
2023-01-11T02:17:01.334Z,82.30
2023-01-11T02:20:18.684Z,83.20
2023-01-11T02:23:57.916Z,83.50
2023-01-11T02:27:29.179Z,83.60
2023-01-11T02:30:39.804Z,83.90
2023-01-11T02:33:51.032Z,84.30
2023-01-11T02:37:05.631Z,84.60
2023-01-11T02:40:16.320Z,85.20
2023-01-11T02:43:42.148Z,86.50
2023-01-11T02:46:55.681Z,86.50
2023-01-11T02:50:05.275Z,86.70
2023-01-11T02:53:14.101Z,87.40
2023-01-11T02:56:20.935Z,87.80
2023-01-11T02:59:29.272Z,88.10
2023-01-11T03:02:33.824Z,88.30
2023-01-11T03:05:41.698Z,88.40
2023-01-11T03:09:11.097Z,89.30
2023-01-11T03:12:48.134Z,89.30
2023-01-11T03:16:13.366Z,89.10
2023-01-11T03:19:26.979Z,89.10
2023-01-11T03:22:39.488Z,89.00
2023-01-11T03:25:56.754Z,89.40
2023-01-11T03:29:09.738Z,89.20
2023-01-11T03:32:19.614Z,89.30
2023-01-11T03:35:29.482Z,89.60
2023-01-11T03:38:38.898Z,89.50
2023-01-11T03:41:44.355Z,89.80
2023-01-11T03:44:51.304Z,90.00
2023-01-11T03:47:55.912Z,90.10
2023-01-11T03:51:02.278Z,90.20
2023-01-11T03:54:09.620Z,90.30
2023-01-11T03:57:17.687Z,90.50
2023-01-11T04:00:21.542Z,90.80
2023-01-11T04:03:27.056Z,91.00
2023-01-11T04:06:33.622Z,91.20
2023-01-11T04:09:38.219Z,91.10
2023-01-11T04:12:41.432Z,91.10
2023-01-11T04:15:44.535Z,91.10
2023-01-11T04:18:47.661Z,91.10
2023-01-11T04:21:52.182Z,91.10
2023-01-11T04:24:55.288Z,91.50
2023-01-11T04:27:58.733Z,90.90
2023-01-11T04:31:01.856Z,91.00
2023-01-11T04:34:05.013Z,91.00
2023-01-11T04:37:09.609Z,90.90
2023-01-11T04:40:13.573Z,90.90
2023-01-11T04:43:16.708Z,90.90
2023-01-11T04:46:19.854Z,91.00
2023-01-11T04:49:23.009Z,90.80
2023-01-11T04:52:27.540Z,90.90
2023-01-11T04:55:30.691Z,91.20
2023-01-11T04:58:37.911Z,91.30
2023-01-11T05:01:41.320Z,91.60
2023-01-11T05:04:44.477Z,91.80
2023-01-11T05:07:49.782Z,91.80
2023-01-11T05:10:56.852Z,91.80
2023-01-11T05:14:00.888Z,91.80
2023-01-11T05:17:04.082Z,91.70
2023-01-11T05:20:08.340Z,91.80
2023-01-11T05:23:12.869Z,91.90
2023-01-11T05:26:18.707Z,92.00
2023-01-11T05:29:21.952Z,91.70
2023-01-11T05:32:25.141Z,91.90
2023-01-11T05:35:28.294Z,91.90
2023-01-11T05:38:32.940Z,92.00
2023-01-11T05:41:36.283Z,92.00
2023-01-11T05:44:58.230Z,92.10
2023-01-11T05:48:01.539Z,92.10
2023-01-11T05:51:04.859Z,92.20
2023-01-11T05:54:12.455Z,92.30
2023-01-11T05:57:15.609Z,92.50
2023-01-11T06:00:19.562Z,92.50
2023-01-11T06:03:23.582Z,92.70
2023-01-11T06:06:26.947Z,92.70
2023-01-11T06:09:31.519Z,92.70
2023-01-11T06:12:34.704Z,92.50
2023-01-11T06:15:38.075Z,92.50
2023-01-11T06:18:42.607Z,92.50
2023-01-11T06:21:45.776Z,92.70
2023-01-11T06:24:50.298Z,92.80
2023-01-11T06:27:54.812Z,93.00
2023-01-11T06:30:59.641Z,93.00
2023-01-11T06:34:02.820Z,92.90
2023-01-11T06:37:06.013Z,92.90
2023-01-11T06:40:12.275Z,92.90
2023-01-11T06:43:15.494Z,93.10
2023-01-11T06:46:18.988Z,93.50
2023-01-11T06:49:22.250Z,94.00
2023-01-11T06:52:28.647Z,94.20
2023-01-11T06:55:33.406Z,94.20
2023-01-11T06:58:37.830Z,93.70
2023-01-11T07:01:42.415Z,93.70
2023-01-11T07:04:45.739Z,93.70
2023-01-11T07:07:48.856Z,93.70
2023-01-11T07:10:53.736Z,93.40
2023-01-11T07:13:57.031Z,93.40
2023-01-11T07:17:00.455Z,93.40
2023-01-11T07:20:04.307Z,93.10
2023-01-11T07:23:08.514Z,93.00
2023-01-11T07:26:14.348Z,92.90
2023-01-11T07:29:17.681Z,92.80
2023-01-11T07:32:21.386Z,92.40
2023-01-11T07:35:24.963Z,92.40
2023-01-11T07:38:29.461Z,92.30
2023-01-11T07:41:51.562Z,92.40
2023-01-11T07:44:54.882Z,92.00
2023-01-11T07:47:58.144Z,91.70
2023-01-11T07:51:01.688Z,91.90
2023-01-11T07:54:04.963Z,91.90
2023-01-11T07:57:09.740Z,91.40
2023-01-11T08:00:14.369Z,91.50
2023-01-11T08:03:17.919Z,91.30
2023-01-11T08:06:21.360Z,91.00
2023-01-11T08:09:24.683Z,90.20
2023-01-11T08:12:46.775Z,89.50
2023-01-11T08:15:49.944Z,88.90
2023-01-11T08:18:53.251Z,87.70
2023-01-11T08:21:56.746Z,86.40
2023-01-11T08:25:00.148Z,85.40
2023-01-11T08:28:06.812Z,84.80
2023-01-11T08:31:10.460Z,84.30
2023-01-11T08:34:14.041Z,83.20
2023-01-11T08:37:17.749Z,83.50
2023-01-11T08:40:23.759Z,84.30
2023-01-11T08:43:31.474Z,84.40
2023-01-11T08:46:34.989Z,85.00
2023-01-11T08:49:38.205Z,85.50
2023-01-11T08:52:43.390Z,85.20
2023-01-11T08:55:49.126Z,85.10
2023-01-11T08:58:53.670Z,85.30
2023-01-11T09:01:56.966Z,85.70
2023-01-11T09:05:00.388Z,86.40
2023-01-11T09:08:03.702Z,87.20
2023-01-11T09:11:27.357Z,87.70
2023-01-11T09:14:32.273Z,88.10
2023-01-11T09:17:35.773Z,87.40
2023-01-11T09:20:38.977Z,85.60
2023-01-11T09:23:45.053Z,84.30
2023-01-11T09:26:48.480Z,83.10
2023-01-11T09:29:53.191Z,81.70
2023-01-11T09:32:56.686Z,79.90
2023-01-11T09:36:02.025Z,79.10
2023-01-11T09:39:08.442Z,78.50
2023-01-11T09:42:32.191Z,77.80
2023-01-11T09:45:37.341Z,76.90
2023-01-11T09:48:44.998Z,76.30
2023-01-11T09:51:50.002Z,75.70
2023-01-11T09:54:53.809Z,75.50
2023-01-11T09:58:28.494Z,75.80
2023-01-11T10:01:39.233Z,75.10
2023-01-11T10:05:00.644Z,75.10
2023-01-11T10:18:25.528Z,73.00
2023-01-11T10:22:36.558Z,71.70
2023-01-11T10:25:48.152Z,71.70
2023-01-11T10:29:09.990Z,70.80
2023-01-11T10:32:45.722Z,70.90
2023-01-11T10:36:10.592Z,71.20
2023-01-11T10:39:38.858Z,71.60
2023-01-11T10:42:47.863Z,72.50
2023-01-11T10:45:54.613Z,72.40
2023-01-11T10:49:05.114Z,72.30
2023-01-11T10:52:23.607Z,71.80
2023-01-11T10:55:34.367Z,72.80
2023-01-11T10:59:05.664Z,71.90
2023-01-11T11:02:25.446Z,72.00
2023-01-11T11:05:38.703Z,72.80
2023-01-11T11:08:53.011Z,74.60
2023-01-11T11:12:00.757Z,75.80
2023-01-11T11:15:10.589Z,75.90
2023-01-11T11:18:14.546Z,75.80
2023-01-11T11:21:28.652Z,75.40
2023-01-11T11:24:39.998Z,75.30
2023-01-11T11:27:47.911Z,74.80
2023-01-11T11:30:54.542Z,74.40
2023-01-11T11:33:58.008Z,73.80
2023-01-11T11:37:01.951Z,73.90
2023-01-11T11:40:07.845Z,73.80
2023-01-11T11:43:13.348Z,74.50
2023-01-11T11:46:26.483Z,73.70
2023-01-11T11:49:31.712Z,73.70
2023-01-11T11:52:35.382Z,73.60
2023-01-11T11:55:40.106Z,74.00
2023-01-11T11:58:44.714Z,74.80
2023-01-11T12:01:55.896Z,74.90
2023-01-11T12:05:01.145Z,75.30
2023-01-11T12:08:05.009Z,75.10
2023-01-11T12:11:19.540Z,75.10
2023-01-11T12:14:26.780Z,75.30
2023-01-11T12:17:29.959Z,75.70
2023-01-11T12:20:42.421Z,75.50
2023-01-11T12:23:45.709Z,76.30
2023-01-11T12:27:03.450Z,77.00
2023-01-11T12:30:23.096Z,76.90
2023-01-11T12:33:37.966Z,76.90
2023-01-11T12:36:48.968Z,77.20
2023-01-11T12:40:01.104Z,77.10
2023-01-11T12:43:38.867Z,77.70
2023-01-11T12:46:55.213Z,78.20
2023-01-11T12:50:07.938Z,77.00
2023-01-11T12:53:26.541Z,77.40
2023-01-11T12:56:51.339Z,77.90
2023-01-11T13:00:14.537Z,77.60
2023-01-11T13:03:56.600Z,77.40
2023-01-11T13:07:08.275Z,81.00
2023-01-11T13:10:25.111Z,80.80
2023-01-11T13:13:35.529Z,78.70
2023-01-11T13:16:47.673Z,77.60
2023-01-11T13:20:07.127Z,76.70
2023-01-11T13:23:16.112Z,76.40
2023-01-11T13:26:24.613Z,76.20
2023-01-11T13:29:31.852Z,76.60
2023-01-11T13:32:38.248Z,76.80
2023-01-11T13:35:46.897Z,76.50
2023-01-11T13:38:55.467Z,77.00
2023-01-11T13:42:03.529Z,76.90
2023-01-11T13:45:15.590Z,76.60
2023-01-11T13:48:26.650Z,76.00
2023-01-11T13:51:37.307Z,76.10
2023-01-11T13:54:47.474Z,76.10
2023-01-11T13:57:56.693Z,76.10
2023-01-11T14:01:07.577Z,75.80
2023-01-11T14:04:21.611Z,74.40
2023-01-11T14:07:36.926Z,73.80
2023-01-11T14:10:52.872Z,73.90
2023-01-11T14:14:19.889Z,73.60
2023-01-11T14:17:36.551Z,72.20
2023-01-11T14:20:46.622Z,72.90
2023-01-11T14:23:52.778Z,72.80
2023-01-11T14:27:23.039Z,72.80
2023-01-11T14:31:01.555Z,74.00
2023-01-11T14:34:46.500Z,75.10
2023-01-11T14:38:28.437Z,76.30
2023-01-11T14:42:01.640Z,75.20
2023-01-11T14:45:17.148Z,76.10
2023-01-11T14:48:30.429Z,76.40
2023-01-11T14:51:41.641Z,76.50
2023-01-11T14:54:46.768Z,76.50
2023-01-11T14:58:06.336Z,76.50
2023-01-11T15:01:11.915Z,76.90
2023-01-11T15:04:23.392Z,76.90
2023-01-11T15:07:34.566Z,76.60
2023-01-11T15:10:48.360Z,76.50
2023-01-11T15:13:57.726Z,76.30
2023-01-11T15:17:21.082Z,76.40
2023-01-11T15:20:25.401Z,76.30
2023-01-11T15:23:31.502Z,75.90
2023-01-11T15:26:49.737Z,75.90
2023-01-11T15:29:57.795Z,75.80
2023-01-11T15:33:44.630Z,75.70
2023-01-11T15:37:17.735Z,75.60
2023-01-11T15:40:23.758Z,75.90
2023-01-11T15:43:54.934Z,76.00
2023-01-11T15:47:21.170Z,76.20
2023-01-11T15:50:59.986Z,76.40
2023-01-11T15:54:35.619Z,76.80
2023-01-11T15:58:14.532Z,77.00
2023-01-11T16:01:25.336Z,77.40
2023-01-11T16:04:33.249Z,77.80
2023-01-11T16:07:46.410Z,78.00
2023-01-11T16:11:02.519Z,78.40
2023-01-11T16:14:28.148Z,79.00
2023-01-11T16:17:31.717Z,79.40
2023-01-11T16:20:37.332Z,79.60
2023-01-11T16:23:41.715Z,80.10
2023-01-11T16:26:45.986Z,80.50
2023-01-11T16:29:51.505Z,80.40
2023-01-11T16:32:54.997Z,80.40
2023-01-11T16:36:13.768Z,80.20
2023-01-11T16:39:21.952Z,80.70
2023-01-11T16:42:27.474Z,80.60
2023-01-11T16:45:43.158Z,81.20
2023-01-11T16:48:46.573Z,81.40
2023-01-11T16:51:51.166Z,81.40
2023-01-11T16:54:55.708Z,81.80
2023-01-11T16:58:01.182Z,81.80
2023-01-11T17:01:07.495Z,81.60
2023-01-11T17:04:29.953Z,81.50
2023-01-11T17:07:34.836Z,82.00
2023-01-11T17:10:38.551Z,82.70
2023-01-11T17:14:01.073Z,82.70
2023-01-11T17:17:07.658Z,82.60
2023-01-11T17:20:19.610Z,82.70
2023-01-11T17:23:24.355Z,83.10
2023-01-11T17:26:29.995Z,83.40
2023-01-11T17:29:35.909Z,83.70
2023-01-11T17:32:42.333Z,83.80
2023-01-11T17:35:45.962Z,84.40
2023-01-11T17:38:50.837Z,84.80
2023-01-11T17:42:11.791Z,85.20
2023-01-11T17:45:21.314Z,85.20
2023-01-11T17:48:24.964Z,85.70
2023-01-11T17:51:31.548Z,86.40
2023-01-11T17:54:37.297Z,86.60
2023-01-11T17:57:40.720Z,86.40
2023-01-11T18:00:45.010Z,86.40
2023-01-11T18:03:51.093Z,86.80
2023-01-11T18:06:56.305Z,87.20
2023-01-11T18:10:03.573Z,87.30
2023-01-11T18:13:07.424Z,87.40
2023-01-11T18:16:10.700Z,87.60
2023-01-11T18:19:31.368Z,87.80
2023-01-11T18:22:37.363Z,88.40
2023-01-11T18:25:45.945Z,88.90
2023-01-11T18:28:51.166Z,89.00
2023-01-11T18:31:55.158Z,89.20
2023-01-11T18:35:00.683Z,89.50
2023-01-11T18:38:07.387Z,89.60
2023-01-11T18:41:32.841Z,89.20
2023-01-11T18:44:36.653Z,89.50
2023-01-11T18:47:39.929Z,89.60
2023-01-11T18:50:45.782Z,90.10
2023-01-11T18:53:49.648Z,90.00
2023-01-11T18:56:54.522Z,90.10
2023-01-11T18:59:58.827Z,90.10
2023-01-11T19:03:02.781Z,90.10
2023-01-11T19:06:07.883Z,90.20
2023-01-11T19:09:11.178Z,90.10
2023-01-11T19:12:16.588Z,90.00
2023-01-11T19:15:21.109Z,89.90
2023-01-11T19:18:25.107Z,90.00
2023-01-11T19:21:29.064Z,89.60
2023-01-11T19:24:33.916Z,89.80
2023-01-11T19:27:42.452Z,90.00
2023-01-11T19:30:46.625Z,90.00
2023-01-11T19:33:50.183Z,90.00
2023-01-11T19:36:54.192Z,89.80
2023-01-11T19:39:57.956Z,90.00
2023-01-11T19:43:03.596Z,90.20
2023-01-11T19:46:07.304Z,90.70
2023-01-11T19:49:10.732Z,90.90
2023-01-11T19:52:19.306Z,90.90
2023-01-11T19:55:22.578Z,91.00
2023-01-11T19:58:28.005Z,90.90
2023-01-11T20:01:32.557Z,90.90
2023-01-11T20:04:37.331Z,90.90
2023-01-11T20:07:41.404Z,91.00
2023-01-11T20:10:45.621Z,91.00
2023-01-11T20:13:52.603Z,91.20
2023-01-11T20:16:56.398Z,91.20
2023-01-11T20:19:59.734Z,91.00
2023-01-11T20:23:03.408Z,91.00
2023-01-11T20:26:15.018Z,91.00
2023-01-11T20:29:20.103Z,91.30
2023-01-11T20:32:40.538Z,91.50
2023-01-11T20:35:46.152Z,91.70
2023-01-11T20:38:50.017Z,91.90
2023-01-11T20:41:54.108Z,91.90
2023-01-11T20:44:58.721Z,91.80
2023-01-11T20:48:02.302Z,92.00
2023-01-11T20:51:06.061Z,92.10
2023-01-11T20:54:09.952Z,92.20
2023-01-11T20:57:13.549Z,92.60
2023-01-11T21:00:19.360Z,92.70
2023-01-11T21:03:25.536Z,92.60
2023-01-11T21:06:29.670Z,92.50
2023-01-11T21:09:32.923Z,92.40
2023-01-11T21:12:36.091Z,92.50
2023-01-11T21:15:40.829Z,92.60
2023-01-11T21:18:45.191Z,92.70
2023-01-11T21:21:49.738Z,93.30
2023-01-11T21:24:53.084Z,93.40
2023-01-11T21:27:56.805Z,93.50
2023-01-11T21:31:05.499Z,93.50
2023-01-11T21:34:09.169Z,93.50
2023-01-11T21:37:12.357Z,93.40
2023-01-11T21:40:15.709Z,93.40
2023-01-11T21:43:18.966Z,93.40
2023-01-11T21:46:23.598Z,93.40
2023-01-11T21:49:26.914Z,93.50
2023-01-11T21:52:30.191Z,93.40
2023-01-11T21:55:34.348Z,93.10
2023-01-11T21:58:37.562Z,93.30
2023-01-11T22:01:44.045Z,93.20
2023-01-11T22:04:47.490Z,93.10
2023-01-11T22:07:50.841Z,93.30
2023-01-11T22:10:58.519Z,93.30
2023-01-11T22:14:02.711Z,93.20
2023-01-11T22:17:07.433Z,93.20
2023-01-11T22:20:15.239Z,93.40
2023-01-11T22:23:18.545Z,93.70
2023-01-11T22:26:22.083Z,94.10
2023-01-11T22:29:25.380Z,94.70
2023-01-11T22:32:31.322Z,94.80
2023-01-11T22:35:34.785Z,95.30
2023-01-11T22:38:38.165Z,95.80
2023-01-11T22:41:41.628Z,96.20
2023-01-11T22:44:44.915Z,96.40
2023-01-11T22:47:49.524Z,96.70
2023-01-11T22:50:52.942Z,97.00
2023-01-11T22:53:56.943Z,97.20
2023-01-11T22:57:00.107Z,97.50
2023-01-11T23:00:04.693Z,97.90
2023-01-11T23:03:09.397Z,98.40
2023-01-11T23:06:13.499Z,98.80
2023-01-11T23:09:17.210Z,99.00
2023-01-11T23:12:37.634Z,99.40
2023-01-11T23:15:41.105Z,99.10
2023-01-11T23:18:45.975Z,99.50
2023-01-11T23:21:49.521Z,99.50
2023-01-11T23:24:52.740Z,99.90
2023-01-11T23:27:56.680Z,99.90
2023-01-11T23:31:00.236Z,99.90
2023-01-11T23:34:07.081Z,99.90
2023-01-11T23:37:10.273Z,99.90
2023-01-11T23:40:13.941Z,99.90
2023-01-11T23:43:16.227Z,99.90
2023-01-11T23:46:37.729Z,99.90
2023-01-11T23:49:43.812Z,99.90
2023-01-11T23:52:47.068Z,99.90
2023-01-11T23:55:56.036Z,99.90
2023-01-11T23:58:59.621Z,99.90
